Gile, WI

11:23 AM CDT on September 05, 2015 (GMT -0500)
Kennedy Memorial | | Change Station
CLOSE
Current Station
Airport
Location: Ashland,
Elevation: 823 ft
Nearby Weather Stations

Elev 823 ft 46.55 °N, 90.92 °W | Updated 30 minutes ago

Mostly Cloudy
Mostly Cloudy
80 °F
Feels Like 84 °F
N
5
Wind Variable Wind from SSW

Today
High -- | Low -- °F
--% Chance of Precip.
Yesterday
High -- | Low -- °F
Precip. -- in
6:25 AM 7:32 PM
Waning Gibbous, 47% visible
Pressure 29.99 in
Visibility 10.0 miles
Clouds Clear
Heat Index 84 °F
Dew Point 72 °F
Humidity 76%
Rainfall 0.00 in
Snow Depth Not available.
UV 5 out of 12
Pollen 2.80 out of 12
Air Quality Not available.
Flu Activity Not available.
METAR KASX 051553Z AUTO 20004KT 10SM CLR 27/22 A2999 RMK AO2 SLP153 T02670222
Pressure 29.99 in
Visibility 10.0 miles
Clouds Clear
Heat Index 84 °F
Dew Point 72 °F
Humidity 76%
Rainfall 0.00 in
Snow Depth Not available.
UV 5 out of 12
Pollen 2.80 out of 12
Air Quality Not available.
Flu Activity Not available.
METAR KASX 051553Z AUTO 20004KT 10SM CLR 27/22 A2999 RMK AO2 SLP153 T02670222

10-Day Weather Forecast

×

Almanac

Astronomy

Sep. 05, 2015 Rise Set
Actual Time
Civil Twilight
Nautical Twilight
Astronomical Twilight
Moon
Length of Visible Light
Length of Day
Tomorrow will be .
, % of the Moon is Illuminated

Today's Extremes

State Highs State Lows

Community

WunderPhotos

Upload Photos

1,852,495 photos uploaded!

WunderBlogs® & News

Nearby

Air Quality

  Air Quality AQ Index Pollutant
Not available.

Snow Depth

Station Depth Elevation

Earthquake Activity

City Distance Mag. Time & Date
Minimum magnitude displayed is 2.5.

Coastal Water Temperatures

Place Temperature

Stations

Nearby Weather Stations

Station Location Temp. Windchill Dew Point Humidity Wind Precip. Elev Updated Type